sensor_id;sensor_type;location;lat;lon;timestamp;pressure;altitude;pressure_sealevel;temperature;humidity
57234;BME280;43090;52.604;13.318;2022-07-29T00:02:16;101514.53;;;14.88;72.12
57234;BME280;43090;52.604;13.318;2022-07-29T00:04:48;101507.69;;;14.60;72.99
57234;BME280;43090;52.604;13.318;2022-07-29T00:07:15;101505.47;;;14.78;73.23
57234;BME280;43090;52.604;13.318;2022-07-29T00:09:44;101514.13;;;15.06;72.33
57234;BME280;43090;52.604;13.318;2022-07-29T00:12:18;101515.56;;;14.98;71.68
57234;BME280;43090;52.604;13.318;2022-07-29T00:14:51;101516.91;;;14.93;71.87
57234;BME280;43090;52.604;13.318;2022-07-29T00:17:17;101514.78;;;14.74;71.69
57234;BME280;43090;52.604;13.318;2022-07-29T00:19:44;101506.47;;;14.53;74.14
57234;BME280;43090;52.604;13.318;2022-07-29T00:22:11;101514.22;;;14.93;72.35
57234;BME280;43090;52.604;13.318;2022-07-29T00:24:38;101509.38;;;14.74;72.61
57234;BME280;43090;52.604;13.318;2022-07-29T00:27:04;101509.00;;;14.78;72.76
57234;BME280;43090;52.604;13.318;2022-07-29T00:29:34;101513.06;;;14.73;73.48
57234;BME280;43090;52.604;13.318;2022-07-29T00:32:01;101501.56;;;14.82;73.28
57234;BME280;43090;52.604;13.318;2022-07-29T00:34:28;101498.25;;;14.54;73.81
57234;BME280;43090;52.604;13.318;2022-07-29T00:37:14;101493.22;;;14.74;73.41
57234;BME280;43090;52.604;13.318;2022-07-29T00:39:40;101493.03;;;14.64;73.97
57234;BME280;43090;52.604;13.318;2022-07-29T00:42:07;101493.13;;;14.62;73.46
57234;BME280;43090;52.604;13.318;2022-07-29T00:44:37;101484.41;;;14.59;73.45
57234;BME280;43090;52.604;13.318;2022-07-29T00:47:04;101480.31;;;14.42;74.21
57234;BME280;43090;52.604;13.318;2022-07-29T00:49:34;101492.06;;;14.41;74.75
57234;BME280;43090;52.604;13.318;2022-07-29T00:52:01;101489.59;;;14.38;74.99
57234;BME280;43090;52.604;13.318;2022-07-29T00:54:28;101489.19;;;14.31;75.02
57234;BME280;43090;52.604;13.318;2022-07-29T00:56:57;101489.06;;;14.32;75.56
57234;BME280;43090;52.604;13.318;2022-07-29T00:59:24;101495.25;;;14.46;75.00
57234;BME280;43090;52.604;13.318;2022-07-29T01:02:00;101489.75;;;14.23;75.59
57234;BME280;43090;52.604;13.318;2022-07-29T01:04:27;101487.13;;;14.35;74.81
57234;BME280;43090;52.604;13.318;2022-07-29T01:06:56;101487.72;;;14.27;76.26
57234;BME280;43090;52.604;13.318;2022-07-29T01:09:22;101477.44;;;14.32;75.32
57234;BME280;43090;52.604;13.318;2022-07-29T01:12:09;101486.78;;;14.39;74.49
57234;BME280;43090;52.604;13.318;2022-07-29T01:14:36;101482.16;;;14.41;74.72
57234;BME280;43090;52.604;13.318;2022-07-29T01:17:13;101481.00;;;14.32;75.54
57234;BME280;43090;52.604;13.318;2022-07-29T01:20:03;101481.94;;;14.20;76.75
57234;BME280;43090;52.604;13.318;2022-07-29T01:22:54;101478.66;;;14.28;76.48
57234;BME280;43090;52.604;13.318;2022-07-29T01:25:32;101470.41;;;14.18;76.50
57234;BME280;43090;52.604;13.318;2022-07-29T01:28:08;101468.22;;;14.23;76.60
57234;BME280;43090;52.604;13.318;2022-07-29T01:30:44;101464.53;;;14.13;77.19
57234;BME280;43090;52.604;13.318;2022-07-29T01:33:13;101462.41;;;14.05;76.71
57234;BME280;43090;52.604;13.318;2022-07-29T01:36:04;101454.03;;;14.21;77.39
57234;BME280;43090;52.604;13.318;2022-07-29T01:38:34;101457.34;;;14.00;76.96
57234;BME280;43090;52.604;13.318;2022-07-29T01:41:03;101453.69;;;14.02;76.76
57234;BME280;43090;52.604;13.318;2022-07-29T01:43:39;101437.81;;;14.10;76.55
57234;BME280;43090;52.604;13.318;2022-07-29T01:46:12;101434.53;;;14.18;76.44
57234;BME280;43090;52.604;13.318;2022-07-29T01:48:43;101415.72;;;13.93;77.52
57234;BME280;43090;52.604;13.318;2022-07-29T01:51:19;101408.59;;;13.92;78.21
57234;BME280;43090;52.604;13.318;2022-07-29T01:56:16;101397.94;;;13.91;77.73
57234;BME280;43090;52.604;13.318;2022-07-29T01:58:54;101405.78;;;13.70;79.13
57234;BME280;43090;52.604;13.318;2022-07-29T02:01:26;101399.59;;;13.80;78.29
57234;BME280;43090;52.604;13.318;2022-07-29T02:04:05;101404.59;;;13.74;79.23
57234;BME280;43090;52.604;13.318;2022-07-29T02:06:33;101399.03;;;13.88;78.74
57234;BME280;43090;52.604;13.318;2022-07-29T02:09:02;101393.53;;;13.90;78.50
57234;BME280;43090;52.604;13.318;2022-07-29T02:11:33;101391.16;;;13.85;78.73
57234;BME280;43090;52.604;13.318;2022-07-29T02:14:01;101392.56;;;13.91;78.90
57234;BME280;43090;52.604;13.318;2022-07-29T02:16:30;101389.06;;;13.77;78.35
57234;BME280;43090;52.604;13.318;2022-07-29T02:18:59;101394.78;;;13.73;78.57
57234;BME280;43090;52.604;13.318;2022-07-29T02:21:27;101395.22;;;13.66;79.30
57234;BME280;43090;52.604;13.318;2022-07-29T02:23:54;101400.16;;;13.97;78.10
57234;BME280;43090;52.604;13.318;2022-07-29T02:26:25;101396.56;;;13.85;78.96
57234;BME280;43090;52.604;13.318;2022-07-29T02:28:54;101399.19;;;13.74;79.31
57234;BME280;43090;52.604;13.318;2022-07-29T02:31:21;101405.91;;;13.92;78.46
57234;BME280;43090;52.604;13.318;2022-07-29T02:33:49;101414.00;;;13.55;80.00
57234;BME280;43090;52.604;13.318;2022-07-29T02:36:16;101406.72;;;13.81;78.72
57234;BME280;43090;52.604;13.318;2022-07-29T02:38:44;101402.56;;;13.89;78.47
57234;BME280;43090;52.604;13.318;2022-07-29T02:41:19;101415.94;;;13.53;79.96
57234;BME280;43090;52.604;13.318;2022-07-29T02:43:47;101412.66;;;13.74;79.62
57234;BME280;43090;52.604;13.318;2022-07-29T02:46:14;101409.53;;;13.80;79.45
57234;BME280;43090;52.604;13.318;2022-07-29T02:48:59;101416.56;;;13.70;79.92
57234;BME280;43090;52.604;13.318;2022-07-29T02:51:29;101413.75;;;13.71;80.05
57234;BME280;43090;52.604;13.318;2022-07-29T02:54:10;101416.56;;;13.70;79.86
57234;BME280;43090;52.604;13.318;2022-07-29T02:56:41;101412.69;;;13.61;79.41
57234;BME280;43090;52.604;13.318;2022-07-29T02:59:22;101417.41;;;13.94;78.86
57234;BME280;43090;52.604;13.318;2022-07-29T03:01:55;101411.63;;;13.88;79.49
57234;BME280;43090;52.604;13.318;2022-07-29T03:04:24;101406.06;;;14.02;78.33
57234;BME280;43090;52.604;13.318;2022-07-29T03:13:50;101396.91;;;14.05;78.52
57234;BME280;43090;52.604;13.318;2022-07-29T03:16:18;101407.84;;;13.90;79.22
57234;BME280;43090;52.604;13.318;2022-07-29T03:18:45;101402.75;;;13.98;78.51
57234;BME280;43090;52.604;13.318;2022-07-29T03:21:12;101410.91;;;13.86;79.64
57234;BME280;43090;52.604;13.318;2022-07-29T03:23:43;101401.84;;;13.87;78.88
57234;BME280;43090;52.604;13.318;2022-07-29T03:26:15;101397.75;;;13.81;79.14
57234;BME280;43090;52.604;13.318;2022-07-29T03:28:41;101400.56;;;13.79;78.98
57234;BME280;43090;52.604;13.318;2022-07-29T03:31:08;101398.53;;;13.83;79.53
57234;BME280;43090;52.604;13.318;2022-07-29T03:33:34;101402.34;;;13.68;79.75
57234;BME280;43090;52.604;13.318;2022-07-29T03:36:01;101402.47;;;13.90;78.96
57234;BME280;43090;52.604;13.318;2022-07-29T03:38:29;101385.69;;;14.11;77.82
57234;BME280;43090;52.604;13.318;2022-07-29T03:40:57;101391.56;;;14.16;77.61
57234;BME280;43090;52.604;13.318;2022-07-29T03:43:28;101393.06;;;14.20;77.26
57234;BME280;43090;52.604;13.318;2022-07-29T03:45:57;101387.22;;;14.26;77.14
57234;BME280;43090;52.604;13.318;2022-07-29T03:48:27;101380.34;;;14.22;77.09
57234;BME280;43090;52.604;13.318;2022-07-29T03:58:05;101383.31;;;14.30;76.59
57234;BME280;43090;52.604;13.318;2022-07-29T04:00:38;101377.19;;;14.40;75.37
57234;BME280;43090;52.604;13.318;2022-07-29T04:03:16;101374.78;;;14.48;75.29
57234;BME280;43090;52.604;13.318;2022-07-29T04:05:45;101382.97;;;14.11;77.52
57234;BME280;43090;52.604;13.318;2022-07-29T04:08:23;101383.81;;;14.11;77.81
57234;BME280;43090;52.604;13.318;2022-07-29T04:10:53;101385.63;;;13.99;78.23
57234;BME280;43090;52.604;13.318;2022-07-29T04:13:21;101383.91;;;13.98;78.28
57234;BME280;43090;52.604;13.318;2022-07-29T04:15:56;101387.75;;;13.83;79.59
57234;BME280;43090;52.604;13.318;2022-07-29T04:18:24;101379.06;;;14.15;78.80
57234;BME280;43090;52.604;13.318;2022-07-29T04:20:56;101387.41;;;14.12;78.17
57234;BME280;43090;52.604;13.318;2022-07-29T04:23:28;101382.97;;;14.11;78.88
57234;BME280;43090;52.604;13.318;2022-07-29T04:25:58;101396.78;;;13.82;79.92
57234;BME280;43090;52.604;13.318;2022-07-29T04:28:26;101404.53;;;13.87;79.90
57234;BME280;43090;52.604;13.318;2022-07-29T04:30:53;101403.38;;;14.02;79.53
57234;BME280;43090;52.604;13.318;2022-07-29T04:33:19;101401.22;;;13.83;79.39
57234;BME280;43090;52.604;13.318;2022-07-29T04:39:39;101402.50;;;14.26;78.36
57234;BME280;43090;52.604;13.318;2022-07-29T04:42:11;101395.66;;;13.97;79.38
57234;BME280;43090;52.604;13.318;2022-07-29T04:51:53;101395.13;;;13.92;80.61
57234;BME280;43090;52.604;13.318;2022-07-29T04:54:26;101400.38;;;14.18;79.77
57234;BME280;43090;52.604;13.318;2022-07-29T04:56:58;101407.34;;;14.09;80.92
57234;BME280;43090;52.604;13.318;2022-07-29T04:59:30;101405.44;;;14.23;78.88
57234;BME280;43090;52.604;13.318;2022-07-29T05:01:57;101406.97;;;14.38;79.26
57234;BME280;43090;52.604;13.318;2022-07-29T05:04:24;101402.94;;;14.44;78.80
57234;BME280;43090;52.604;13.318;2022-07-29T05:06:53;101404.25;;;14.74;76.68
57234;BME280;43090;52.604;13.318;2022-07-29T05:09:32;101402.03;;;14.68;76.23
57234;BME280;43090;52.604;13.318;2022-07-29T05:12:03;101396.19;;;14.85;75.20
57234;BME280;43090;52.604;13.318;2022-07-29T05:14:39;101395.19;;;14.86;75.69
57234;BME280;43090;52.604;13.318;2022-07-29T05:17:18;101396.06;;;15.21;73.61
57234;BME280;43090;52.604;13.318;2022-07-29T05:19:48;101403.53;;;15.17;73.42
57234;BME280;43090;52.604;13.318;2022-07-29T05:22:28;101396.88;;;15.55;71.76
57234;BME280;43090;52.604;13.318;2022-07-29T05:25:03;101401.03;;;15.71;71.62
57234;BME280;43090;52.604;13.318;2022-07-29T05:28:11;101382.84;;;15.73;72.45
57234;BME280;43090;52.604;13.318;2022-07-29T05:31:05;101391.75;;;15.52;73.15
57234;BME280;43090;52.604;13.318;2022-07-29T05:36:48;101387.31;;;15.62;73.78
57234;BME280;43090;52.604;13.318;2022-07-29T05:39:23;101388.50;;;15.70;73.80
57234;BME280;43090;52.604;13.318;2022-07-29T05:42:14;101380.06;;;15.52;74.40
57234;BME280;43090;52.604;13.318;2022-07-29T05:44:43;101380.06;;;15.52;73.79
57234;BME280;43090;52.604;13.318;2022-07-29T05:47:26;101378.69;;;15.69;73.04
57234;BME280;43090;52.604;13.318;2022-07-29T05:49:52;101373.91;;;15.84;71.27
57234;BME280;43090;52.604;13.318;2022-07-29T05:52:20;101375.69;;;15.94;71.53
57234;BME280;43090;52.604;13.318;2022-07-29T05:54:47;101379.50;;;15.92;72.18
57234;BME280;43090;52.604;13.318;2022-07-29T05:57:21;101383.34;;;15.89;73.37
57234;BME280;43090;52.604;13.318;2022-07-29T05:59:48;101388.78;;;16.10;73.41
57234;BME280;43090;52.604;13.318;2022-07-29T06:02:15;101382.78;;;15.95;73.53
57234;BME280;43090;52.604;13.318;2022-07-29T06:04:42;101386.25;;;15.97;74.10
57234;BME280;43090;52.604;13.318;2022-07-29T06:07:08;101394.09;;;16.22;71.68
57234;BME280;43090;52.604;13.318;2022-07-29T06:09:37;101391.84;;;16.06;71.50
57234;BME280;43090;52.604;13.318;2022-07-29T06:12:09;101405.22;;;16.40;70.78
57234;BME280;43090;52.604;13.318;2022-07-29T06:14:36;101396.75;;;16.33;71.75
57234;BME280;43090;52.604;13.318;2022-07-29T06:17:04;101405.25;;;16.49;72.01
57234;BME280;43090;52.604;13.318;2022-07-29T06:19:33;101390.94;;;16.59;69.37
57234;BME280;43090;52.604;13.318;2022-07-29T06:21:59;101394.34;;;16.72;69.03
57234;BME280;43090;52.604;13.318;2022-07-29T06:24:26;101392.97;;;16.88;68.36
57234;BME280;43090;52.604;13.318;2022-07-29T06:26:53;101391.34;;;16.75;70.51
57234;BME280;43090;52.604;13.318;2022-07-29T06:29:19;101389.03;;;16.71;69.84
57234;BME280;43090;52.604;13.318;2022-07-29T06:31:46;101390.16;;;16.68;69.19
57234;BME280;43090;52.604;13.318;2022-07-29T06:34:12;101392.28;;;16.86;68.70
57234;BME280;43090;52.604;13.318;2022-07-29T06:36:40;101390.53;;;16.85;68.23
57234;BME280;43090;52.604;13.318;2022-07-29T06:39:07;101385.06;;;16.96;67.37
57234;BME280;43090;52.604;13.318;2022-07-29T06:41:33;101380.41;;;17.08;67.17
57234;BME280;43090;52.604;13.318;2022-07-29T06:44:00;101391.97;;;17.10;66.35
57234;BME280;43090;52.604;13.318;2022-07-29T06:46:26;101385.28;;;17.14;66.57
57234;BME280;43090;52.604;13.318;2022-07-29T06:48:53;101381.19;;;17.20;65.35
57234;BME280;43090;52.604;13.318;2022-07-29T06:51:20;101391.06;;;16.99;67.32
57234;BME280;43090;52.604;13.318;2022-07-29T06:53:49;101383.25;;;17.47;66.00
57234;BME280;43090;52.604;13.318;2022-07-29T06:56:31;101382.72;;;17.03;66.82
57234;BME280;43090;52.604;13.318;2022-07-29T06:59:05;101391.59;;;17.24;65.73
57234;BME280;43090;52.604;13.318;2022-07-29T07:01:32;101388.84;;;17.55;64.73
57234;BME280;43090;52.604;13.318;2022-07-29T07:03:58;101402.66;;;17.52;65.40
57234;BME280;43090;52.604;13.318;2022-07-29T07:06:25;101406.06;;;17.44;64.54
57234;BME280;43090;52.604;13.318;2022-07-29T07:08:51;101394.88;;;17.88;63.67
57234;BME280;43090;52.604;13.318;2022-07-29T07:11:17;101401.38;;;17.56;65.33
57234;BME280;43090;52.604;13.318;2022-07-29T07:13:44;101396.84;;;17.76;65.82
57234;BME280;43090;52.604;13.318;2022-07-29T07:16:10;101400.88;;;17.82;65.59
57234;BME280;43090;52.604;13.318;2022-07-29T07:18:37;101391.19;;;17.89;66.51
57234;BME280;43090;52.604;13.318;2022-07-29T07:21:03;101402.94;;;18.19;65.35
57234;BME280;43090;52.604;13.318;2022-07-29T07:23:31;101397.63;;;18.27;61.68
57234;BME280;43090;52.604;13.318;2022-07-29T07:25:57;101395.06;;;18.36;62.55
57234;BME280;43090;52.604;13.318;2022-07-29T07:28:24;101389.13;;;18.79;60.35
57234;BME280;43090;52.604;13.318;2022-07-29T07:30:51;101393.84;;;18.77;61.33
57234;BME280;43090;52.604;13.318;2022-07-29T07:33:18;101386.03;;;18.55;63.10
57234;BME280;43090;52.604;13.318;2022-07-29T07:35:44;101384.59;;;18.60;65.08
57234;BME280;43090;52.604;13.318;2022-07-29T07:38:11;101391.72;;;19.19;62.81
57234;BME280;43090;52.604;13.318;2022-07-29T07:40:37;101394.69;;;19.25;59.02
57234;BME280;43090;52.604;13.318;2022-07-29T07:43:04;101381.94;;;19.81;57.76
57234;BME280;43090;52.604;13.318;2022-07-29T07:45:30;101382.78;;;20.00;57.01
57234;BME280;43090;52.604;13.318;2022-07-29T07:48:00;101379.34;;;20.52;57.47
57234;BME280;43090;52.604;13.318;2022-07-29T07:50:26;101378.09;;;21.42;54.81
57234;BME280;43090;52.604;13.318;2022-07-29T07:52:54;101381.00;;;21.83;53.34
57234;BME280;43090;52.604;13.318;2022-07-29T07:55:23;101375.31;;;22.92;52.16
57234;BME280;43090;52.604;13.318;2022-07-29T07:57:50;101371.28;;;23.90;48.47
57234;BME280;43090;52.604;13.318;2022-07-29T08:00:19;101369.03;;;23.94;48.12
57234;BME280;43090;52.604;13.318;2022-07-29T08:03:06;101357.94;;;23.64;45.32
57234;BME280;43090;52.604;13.318;2022-07-29T08:05:48;101358.16;;;24.09;44.63
57234;BME280;43090;52.604;13.318;2022-07-29T08:08:17;101365.09;;;23.65;45.62
57234;BME280;43090;52.604;13.318;2022-07-29T08:17:33;101359.88;;;22.59;49.53
57234;BME280;43090;52.604;13.318;2022-07-29T08:20:07;101354.31;;;22.92;47.47
57234;BME280;43090;52.604;13.318;2022-07-29T08:22:36;101351.34;;;22.54;49.85
57234;BME280;43090;52.604;13.318;2022-07-29T08:25:07;101347.59;;;22.55;50.54
57234;BME280;43090;52.604;13.318;2022-07-29T08:27:37;101347.25;;;22.09;51.08
57234;BME280;43090;52.604;13.318;2022-07-29T08:30:09;101344.88;;;22.22;48.51
57234;BME280;43090;52.604;13.318;2022-07-29T08:36:38;101344.84;;;22.72;46.51
57234;BME280;43090;52.604;13.318;2022-07-29T08:39:14;101344.53;;;22.34;47.87
57234;BME280;43090;52.604;13.318;2022-07-29T08:42:23;101340.78;;;22.51;45.41
57234;BME280;43090;52.604;13.318;2022-07-29T08:52:04;101325.88;;;23.58;43.86
57234;BME280;43090;52.604;13.318;2022-07-29T08:54:53;101332.75;;;23.45;43.89
57234;BME280;43090;52.604;13.318;2022-07-29T08:57:33;101325.50;;;23.38;42.82
57234;BME280;43090;52.604;13.318;2022-07-29T09:00:04;101325.63;;;23.44;41.89
57234;BME280;43090;52.604;13.318;2022-07-29T10:43:32;101290.25;;;24.66;36.01
57234;BME280;43090;52.604;13.318;2022-07-29T11:21:38;101229.47;;;25.07;33.36
57234;BME280;43090;52.604;13.318;2022-07-29T11:24:31;101225.06;;;25.49;33.45
57234;BME280;43090;52.604;13.318;2022-07-29T11:27:17;101274.34;;;25.42;35.61
57234;BME280;43090;52.604;13.318;2022-07-29T11:33:38;101239.06;;;24.36;36.60
57234;BME280;43090;52.604;13.318;2022-07-29T11:36:31;101230.78;;;24.74;35.42
57234;BME280;43090;52.604;13.318;2022-07-29T11:39:27;101227.31;;;25.02;35.29
57234;BME280;43090;52.604;13.318;2022-07-29T11:42:41;101254.59;;;25.47;36.44
57234;BME280;43090;52.604;13.318;2022-07-29T11:45:22;101238.50;;;25.87;34.04
57234;BME280;43090;52.604;13.318;2022-07-29T11:48:16;101225.25;;;25.91;33.07
57234;BME280;43090;52.604;13.318;2022-07-29T11:51:20;101220.13;;;26.09;33.18
57234;BME280;43090;52.604;13.318;2022-07-29T11:54:01;101242.38;;;26.00;35.78
57234;BME280;43090;52.604;13.318;2022-07-29T11:56:31;101236.63;;;26.16;33.12
57234;BME280;43090;52.604;13.318;2022-07-29T11:59:08;101220.75;;;26.40;31.53
57234;BME280;43090;52.604;13.318;2022-07-29T12:01:52;101215.56;;;26.58;32.42
57234;BME280;43090;52.604;13.318;2022-07-29T12:04:51;101238.84;;;26.27;34.61
57234;BME280;43090;52.604;13.318;2022-07-29T12:07:31;101211.47;;;26.13;34.41
57234;BME280;43090;52.604;13.318;2022-07-29T12:10:01;101223.06;;;26.08;32.52
57234;BME280;43090;52.604;13.318;2022-07-29T12:12:28;101224.16;;;26.14;34.31
57234;BME280;43090;52.604;13.318;2022-07-29T12:26:33;101194.06;;;25.99;35.74
57234;BME280;43090;52.604;13.318;2022-07-29T12:29:33;101174.31;;;26.10;34.20
57234;BME280;43090;52.604;13.318;2022-07-29T12:32:46;101185.13;;;26.53;34.91
57234;BME280;43090;52.604;13.318;2022-07-29T12:35:38;101182.59;;;26.17;34.93
57234;BME280;43090;52.604;13.318;2022-07-29T12:38:34;101208.91;;;26.39;36.56
57234;BME280;43090;52.604;13.318;2022-07-29T14:19:26;101111.53;;;26.90;35.81
57234;BME280;43090;52.604;13.318;2022-07-29T14:30:21;101107.16;;;27.56;34.40
57234;BME280;43090;52.604;13.318;2022-07-29T14:33:23;101107.13;;;27.70;36.29
57234;BME280;43090;52.604;13.318;2022-07-29T14:40:28;101092.53;;;27.63;34.60
57234;BME280;43090;52.604;13.318;2022-07-29T14:50:46;101099.72;;;27.64;34.37
57234;BME280;43090;52.604;13.318;2022-07-29T15:20:10;101110.56;;;26.63;36.83
57234;BME280;43090;52.604;13.318;2022-07-29T23:51:28;101095.75;;;18.56;56.13
57234;BME280;43090;52.604;13.318;2022-07-29T23:54:14;101076.53;;;18.50;55.83
57234;BME280;43090;52.604;13.318;2022-07-29T23:56:46;101098.78;;;18.71;55.74
